createdAt,value
2019-02-23T00:01:03.674Z,18.87
2019-02-23T00:02:13.106Z,18.84
2019-02-23T00:03:22.793Z,18.81
2019-02-23T00:04:32.737Z,18.85
2019-02-23T00:05:42.431Z,18.91
2019-02-23T00:06:52.414Z,18.85
2019-02-23T00:08:02.349Z,18.85
2019-02-23T00:09:11.537Z,18.84
2019-02-23T00:10:20.976Z,18.76
2019-02-23T00:11:30.482Z,18.76
2019-02-23T00:12:40.178Z,18.82
2019-02-23T00:13:49.861Z,18.76
2019-02-23T00:14:59.801Z,18.81
2019-02-23T00:16:09.504Z,18.7
2019-02-23T00:17:19.046Z,18.84
2019-02-23T00:18:28.733Z,18.78
2019-02-23T00:19:38.429Z,18.82
2019-02-23T00:20:48.372Z,18.76
2019-02-23T00:21:57.808Z,18.78
2019-02-23T00:23:07.780Z,18.65
2019-02-23T00:24:17.235Z,18.65
2019-02-23T00:25:26.679Z,18.75
2019-02-23T00:26:36.375Z,18.72
2019-02-23T00:27:46.319Z,18.67
2019-02-23T00:28:56.260Z,18.65
2019-02-23T00:30:05.958Z,18.65
2019-02-23T00:31:15.158Z,18.62
2019-02-23T00:32:24.650Z,18.67
2019-02-23T00:33:34.407Z,18.65
2019-02-23T00:34:44.089Z,18.75
2019-02-23T00:35:54.029Z,18.67
2019-02-23T00:37:03.721Z,18.75
2019-02-23T00:38:13.402Z,18.69
2019-02-23T00:39:22.845Z,18.72
2019-02-23T00:40:32.534Z,18.72
2019-02-23T00:41:42.474Z,18.58
2019-02-23T00:42:51.912Z,18.66
2019-02-23T00:44:01.611Z,18.6
2019-02-23T00:45:11.301Z,18.63
2019-02-23T00:46:21.003Z,18.6
2019-02-23T00:47:30.698Z,18.6
2019-02-23T00:48:40.684Z,18.58
2019-02-23T00:49:50.132Z,18.55
2019-02-23T00:50:59.827Z,18.57
2019-02-23T00:52:09.520Z,18.54
2019-02-23T00:53:19.468Z,18.54
2019-02-23T00:54:29.421Z,18.52
2019-02-23T00:55:39.103Z,18.55
2019-02-23T00:56:48.797Z,18.57
2019-02-23T00:57:58.234Z,18.58
2019-02-23T00:59:07.943Z,18.58
2019-02-23T01:00:17.964Z,18.57
2019-02-23T01:01:27.906Z,18.42
2019-02-23T01:02:37.672Z,18.55
2019-02-23T01:03:47.613Z,18.5
2019-02-23T01:04:57.306Z,18.47
2019-02-23T01:06:07.255Z,18.45
2019-02-23T01:07:16.782Z,18.51
2019-02-23T01:08:26.469Z,18.51
2019-02-23T01:09:36.411Z,18.57
2019-02-23T01:10:45.855Z,18.42
2019-02-23T01:12:05.117Z,18.51
2019-02-23T01:13:14.807Z,18.47
2019-02-23T01:14:24.241Z,18.51
2019-02-23T01:15:33.960Z,18.47
2019-02-23T01:16:42.897Z,18.47
2019-02-23T01:17:52.089Z,18.45
2019-02-23T01:19:01.528Z,18.45
2019-02-23T01:20:11.247Z,18.44
2019-02-23T01:21:20.933Z,18.39
2019-02-23T01:22:30.934Z,18.39
2019-02-23T01:23:40.441Z,18.41
2019-02-23T01:24:49.875Z,18.45
2019-02-23T01:26:00.010Z,18.42
2019-02-23T01:27:09.459Z,18.42
2019-02-23T01:28:19.392Z,18.44
2019-02-23T01:29:29.344Z,18.41
2019-02-23T01:30:39.284Z,18.35
2019-02-23T01:31:48.980Z,18.39
2019-02-23T01:32:58.667Z,18.3
2019-02-23T01:34:08.109Z,18.3
2019-02-23T01:35:18.045Z,18.3
2019-02-23T01:36:27.775Z,18.29
2019-02-23T01:37:37.469Z,18.35
2019-02-23T01:38:47.412Z,18.33
2019-02-23T01:39:57.098Z,18.36
2019-02-23T01:41:07.042Z,18.3
2019-02-23T01:42:16.979Z,18.3
2019-02-23T01:43:26.913Z,18.3
2019-02-23T01:44:36.620Z,18.36
2019-02-23T01:45:47.489Z,18.3
2019-02-23T01:46:57.429Z,18.26
2019-02-23T01:48:06.886Z,18.3
2019-02-23T01:49:16.330Z,18.32
2019-02-23T01:50:26.032Z,18.3
2019-02-23T01:51:35.731Z,18.32
2019-02-23T01:52:45.668Z,18.26
2019-02-23T01:53:55.357Z,18.21
2019-02-23T01:55:05.112Z,18.21
2019-02-23T01:56:14.556Z,18.2
2019-02-23T01:57:24.246Z,18.21
2019-02-23T01:58:33.701Z,18.18
2019-02-23T01:59:43.136Z,18.17
2019-02-23T02:00:52.570Z,18.21
2019-02-23T02:02:02.525Z,18.18
2019-02-23T02:03:12.210Z,18.17
2019-02-23T02:04:21.898Z,18.11
2019-02-23T02:05:31.611Z,18.21
2019-02-23T02:06:41.556Z,18.11
2019-02-23T02:07:51.241Z,18.11
2019-02-23T02:09:00.682Z,18.26
2019-02-23T02:10:10.176Z,18.23
2019-02-23T02:11:19.644Z,18.21
2019-02-23T02:12:29.575Z,18.26
2019-02-23T02:13:39.297Z,18.26
2019-02-23T02:17:59.861Z,18.25
2019-02-23T02:19:09.574Z,18.18
2019-02-23T02:20:19.507Z,18.18
2019-02-23T02:21:29.445Z,18.14
2019-02-23T02:22:39.127Z,18.18
2019-02-23T02:23:48.566Z,18.18
2019-02-23T02:24:58.296Z,18.15
2019-02-23T02:26:07.732Z,18.14
2019-02-23T02:27:17.170Z,18.12
2019-02-23T02:28:27.119Z,18.21
2019-02-23T02:29:36.314Z,18.23
2019-02-23T02:30:46.006Z,18.14
2019-02-23T02:31:55.704Z,18.11
2019-02-23T02:33:05.149Z,18.08
2019-02-23T02:34:14.861Z,18.15
2019-02-23T02:35:24.806Z,18.17
2019-02-23T02:36:34.508Z,18.18
2019-02-23T02:37:44.504Z,18.14
2019-02-23T02:38:54.203Z,18.12
2019-02-23T02:40:04.151Z,18.14
2019-02-23T02:41:13.602Z,18.18
2019-02-23T02:42:23.550Z,18.18
2019-02-23T02:43:32.768Z,18.08
2019-02-23T02:44:42.778Z,18.08
2019-02-23T02:45:52.474Z,18.12
2019-02-23T02:47:02.186Z,18.14
2019-02-23T02:48:12.132Z,18.05
2019-02-23T02:49:21.833Z,18.08
2019-02-23T02:50:31.524Z,18.15
2019-02-23T02:51:41.464Z,18.08
2019-02-23T02:52:51.406Z,18.12
2019-02-23T02:54:01.348Z,18.11
2019-02-23T02:55:11.221Z,18.03
2019-02-23T02:56:20.913Z,18.02
2019-02-23T02:57:30.611Z,18.07
2019-02-23T02:58:40.549Z,18.05
2019-02-23T02:59:50.502Z,18.07
2019-02-23T03:01:00.189Z,18.08
2019-02-23T03:02:10.150Z,18
2019-02-23T03:03:20.099Z,18.03
2019-02-23T03:04:29.547Z,18.08
2019-02-23T03:05:39.505Z,18.02
2019-02-23T03:06:49.517Z,18
2019-02-23T03:07:59.035Z,18
2019-02-23T03:09:08.722Z,18.03
2019-02-23T03:10:18.181Z,18.02
2019-02-23T03:11:27.619Z,17.97
2019-02-23T03:12:37.308Z,18.05
2019-02-23T03:13:47.002Z,17.99
2019-02-23T03:14:56.435Z,18.03
2019-02-23T03:16:05.902Z,18.03
2019-02-23T03:17:15.595Z,18.05
2019-02-23T03:18:25.286Z,17.97
2019-02-23T03:19:35.226Z,17.93
2019-02-23T03:20:45.189Z,17.99
2019-02-23T03:21:54.398Z,17.95
2019-02-23T03:23:04.338Z,17.99
2019-02-23T03:24:14.038Z,17.99
2019-02-23T03:25:23.481Z,17.96
2019-02-23T03:26:32.924Z,17.96
2019-02-23T03:27:42.622Z,17.97
2019-02-23T03:28:52.063Z,18
2019-02-23T03:30:02.013Z,18
2019-02-23T03:31:11.996Z,17.97
2019-02-23T03:32:21.243Z,17.99
2019-02-23T03:33:31.270Z,17.92
2019-02-23T03:34:41.422Z,17.99
2019-02-23T03:35:51.365Z,17.95
2019-02-23T03:37:01.310Z,17.93
2019-02-23T03:38:11.011Z,17.96
2019-02-23T03:39:20.461Z,17.95
2019-02-23T03:40:30.173Z,17.9
2019-02-23T03:41:39.859Z,17.93
2019-02-23T03:42:49.806Z,17.86
2019-02-23T03:43:59.771Z,17.89
2019-02-23T03:45:09.899Z,17.89
2019-02-23T03:46:19.360Z,17.87
2019-02-23T03:47:29.286Z,17.89
2019-02-23T03:48:38.723Z,17.93
2019-02-23T03:49:48.423Z,17.84
2019-02-23T03:50:57.620Z,17.92
2019-02-23T03:52:07.349Z,17.9
2019-02-23T03:53:17.041Z,17.87
2019-02-23T03:54:27.000Z,17.87
2019-02-23T03:55:36.692Z,17.92
2019-02-23T03:56:46.547Z,17.87
2019-02-23T03:57:56.517Z,17.87
2019-02-23T03:59:05.952Z,17.89
2019-02-23T04:00:15.893Z,17.87
2019-02-23T04:01:25.850Z,17.92
2019-02-23T04:02:35.790Z,17.89
2019-02-23T04:03:45.747Z,17.89
2019-02-23T04:04:55.194Z,17.87
2019-02-23T04:06:04.650Z,17.89
2019-02-23T04:07:14.593Z,17.79
2019-02-23T04:08:24.314Z,17.92
2019-02-23T04:09:33.500Z,17.74
2019-02-23T04:10:42.953Z,17.74
2019-02-23T04:11:52.892Z,17.79
2019-02-23T04:13:02.874Z,17.75
2019-02-23T04:14:12.650Z,17.74
2019-02-23T04:15:22.090Z,17.87
2019-02-23T04:16:31.785Z,17.77
2019-02-23T04:17:41.736Z,17.75
2019-02-23T04:18:51.692Z,17.77
2019-02-23T04:20:01.476Z,17.74
2019-02-23T04:21:11.484Z,17.7
2019-02-23T04:22:20.929Z,17.72
2019-02-23T04:23:30.886Z,17.74
2019-02-23T04:24:40.828Z,17.79
2019-02-23T04:25:50.646Z,17.75
2019-02-23T04:27:00.344Z,17.72
2019-02-23T04:28:10.290Z,17.75
2019-02-23T04:29:20.244Z,17.81
2019-02-23T04:30:30.204Z,17.75
2019-02-23T04:31:39.651Z,17.68
2019-02-23T04:32:49.092Z,17.75
2019-02-23T04:33:59.041Z,17.81
2019-02-23T04:35:08.980Z,17.64
2019-02-23T04:36:18.482Z,17.75
2019-02-23T04:37:28.167Z,17.74
2019-02-23T04:38:37.855Z,17.66
2019-02-23T04:39:47.811Z,17.75
2019-02-23T04:40:57.748Z,17.81
2019-02-23T04:42:07.436Z,17.7
2019-02-23T04:43:16.874Z,17.81
2019-02-23T04:44:26.805Z,17.75
2019-02-23T04:45:35.786Z,17.74
2019-02-23T04:46:45.501Z,17.66
2019-02-23T04:47:55.473Z,17.75
2019-02-23T04:49:04.910Z,17.77
2019-02-23T04:50:14.345Z,17.7
2019-02-23T04:51:24.078Z,17.62
2019-02-23T04:52:33.768Z,17.66
2019-02-23T04:53:43.475Z,17.68
2019-02-23T04:54:53.424Z,17.72
2019-02-23T04:56:03.221Z,17.63
2019-02-23T04:57:12.926Z,17.7
2019-02-23T04:58:22.634Z,17.68
2019-02-23T04:59:32.614Z,17.68
2019-02-23T05:00:44.917Z,17.64
2019-02-23T05:01:54.740Z,17.68
2019-02-23T05:03:04.782Z,17.66
2019-02-23T05:04:14.734Z,17.68
2019-02-23T05:05:24.197Z,17.68
2019-02-23T05:06:33.648Z,17.66
2019-02-23T05:07:43.350Z,17.66
2019-02-23T05:08:53.310Z,17.54
2019-02-23T05:10:02.568Z,17.56
2019-02-23T05:11:12.362Z,17.51
2019-02-23T05:12:22.088Z,17.54
2019-02-23T05:13:32.039Z,17.63
2019-02-23T05:14:41.988Z,17.54
2019-02-23T05:15:51.706Z,17.54
2019-02-23T05:17:01.391Z,17.58
2019-02-23T05:18:11.069Z,17.54
2019-02-23T05:19:20.770Z,17.59
2019-02-23T05:20:30.749Z,17.56
2019-02-23T05:21:39.960Z,17.62
2019-02-23T05:22:49.138Z,17.55
2019-02-23T05:23:59.105Z,17.55
2019-02-23T05:25:09.054Z,17.51
2019-02-23T05:26:18.739Z,17.55
2019-02-23T05:27:28.704Z,17.52
2019-02-23T05:28:38.412Z,17.51
2019-02-23T05:29:47.847Z,17.51
2019-02-23T05:30:57.534Z,17.52
2019-02-23T05:32:07.499Z,17.54
2019-02-23T05:33:17.197Z,17.49
2019-02-23T05:34:27.137Z,17.49
2019-02-23T05:35:36.584Z,17.52
2019-02-23T05:36:46.278Z,17.48
2019-02-23T05:37:55.981Z,17.46
2019-02-23T05:39:05.715Z,17.54
2019-02-23T05:40:15.691Z,17.51
2019-02-23T05:41:25.639Z,17.49
2019-02-23T05:42:35.347Z,17.49
2019-02-23T05:43:45.303Z,17.49
2019-02-23T05:44:55.005Z,17.48
2019-02-23T05:46:04.444Z,17.49
2019-02-23T05:47:14.548Z,17.49
2019-02-23T05:48:24.258Z,17.48
2019-02-23T05:49:36.771Z,17.44
2019-02-23T05:50:46.938Z,17.43
2019-02-23T05:51:56.631Z,17.48
2019-02-23T05:53:06.100Z,17.49
2019-02-23T05:54:15.537Z,17.46
2019-02-23T05:55:24.992Z,17.52
2019-02-23T05:56:34.679Z,17.46
2019-02-23T05:57:44.367Z,17.48
2019-02-23T05:58:54.060Z,17.51
2019-02-23T06:00:04.015Z,17.55
2019-02-23T06:01:13.454Z,17.48
2019-02-23T06:02:23.158Z,17.52
2019-02-23T06:03:33.103Z,17.56
2019-02-23T06:04:42.793Z,17.63
2019-02-23T06:05:52.754Z,17.59
2019-02-23T06:07:02.460Z,17.62
2019-02-23T06:08:12.169Z,17.55
2019-02-23T06:09:22.119Z,17.58
2019-02-23T06:10:31.570Z,17.59
2019-02-23T06:11:41.509Z,17.55
2019-02-23T06:12:51.515Z,17.58
2019-02-23T06:14:01.214Z,17.52
2019-02-23T06:15:11.146Z,17.56
2019-02-23T06:16:20.842Z,17.55
2019-02-23T06:17:30.796Z,17.58
2019-02-23T06:18:40.247Z,17.51
2019-02-23T06:19:50.193Z,17.62
2019-02-23T06:20:59.884Z,17.52
2019-02-23T06:22:09.650Z,17.59
2019-02-23T06:23:19.594Z,17.56
2019-02-23T06:24:29.548Z,17.56
2019-02-23T06:25:39.539Z,17.54
2019-02-23T06:26:49.230Z,17.55
2019-02-23T06:27:59.184Z,17.56
2019-02-23T06:29:09.157Z,17.52
2019-02-23T06:30:20.868Z,17.51
2019-02-23T06:31:30.612Z,17.52
2019-02-23T06:32:39.800Z,17.51
2019-02-23T06:33:49.252Z,17.55
2019-02-23T06:34:58.705Z,17.52
2019-02-23T06:36:08.418Z,17.51
2019-02-23T06:37:17.603Z,17.51
2019-02-23T06:38:27.538Z,17.56
2019-02-23T06:39:37.229Z,17.56
2019-02-23T06:40:46.926Z,17.58
2019-02-23T06:41:56.364Z,17.56
2019-02-23T06:43:05.559Z,17.51
2019-02-23T06:44:15.249Z,17.49
2019-02-23T06:45:24.948Z,17.54
2019-02-23T06:46:34.639Z,17.48
2019-02-23T06:47:44.342Z,17.48
2019-02-23T06:48:53.523Z,17.51
2019-02-23T06:50:03.054Z,17.44
2019-02-23T06:51:12.782Z,17.51
2019-02-23T06:52:22.731Z,17.49
2019-02-23T06:53:32.165Z,17.49
2019-02-23T06:54:41.865Z,17.48
2019-02-23T06:55:51.072Z,17.49
2019-02-23T06:57:01.047Z,17.51
2019-02-23T06:58:10.499Z,17.49
2019-02-23T06:59:20.187Z,17.48
2019-02-23T07:00:29.640Z,17.48
2019-02-23T07:01:39.332Z,17.54
2019-02-23T07:02:49.283Z,17.51
2019-02-23T07:03:58.742Z,17.46
2019-02-23T07:05:08.732Z,17.48
2019-02-23T07:06:18.216Z,17.49
2019-02-23T07:07:27.665Z,17.52
2019-02-23T07:08:37.139Z,17.48
2019-02-23T07:09:47.082Z,17.41
2019-02-23T07:10:57.038Z,17.49
2019-02-23T07:12:06.732Z,17.44
2019-02-23T07:13:16.411Z,17.52
2019-02-23T07:14:26.357Z,17.41
2019-02-23T07:15:36.048Z,17.46
2019-02-23T07:16:45.488Z,17.46
2019-02-23T07:17:55.432Z,17.52
2019-02-23T07:19:04.871Z,17.46
2019-02-23T07:20:14.559Z,17.48
2019-02-23T07:21:24.268Z,17.48
2019-02-23T07:22:36.217Z,17.41
2019-02-23T07:23:45.905Z,17.49
2019-02-23T07:24:55.606Z,17.52
2019-02-23T07:26:05.570Z,17.54
2019-02-23T07:27:15.251Z,17.55
2019-02-23T07:28:24.687Z,17.54
2019-02-23T07:29:34.369Z,17.56
2019-02-23T07:30:44.313Z,17.51
2019-02-23T07:31:53.747Z,17.52
2019-02-23T07:33:03.441Z,17.51
2019-02-23T07:34:13.145Z,17.54
2019-02-23T07:35:23.086Z,17.55
2019-02-23T07:36:33.042Z,17.52
2019-02-23T07:37:42.994Z,17.54
2019-02-23T07:38:52.669Z,17.52
2019-02-23T07:40:02.359Z,17.46
2019-02-23T07:41:12.096Z,17.51
2019-02-23T07:42:22.024Z,17.44
2019-02-23T07:43:31.710Z,17.49
2019-02-23T07:44:41.660Z,17.46
2019-02-23T07:45:51.110Z,17.48
2019-02-23T07:47:00.797Z,17.51
2019-02-23T07:48:10.232Z,17.54
2019-02-23T07:49:20.184Z,17.51
2019-02-23T07:50:29.382Z,17.51
2019-02-23T07:51:39.069Z,17.49
2019-02-23T07:52:48.006Z,17.48
2019-02-23T07:53:57.194Z,17.48
2019-02-23T07:55:06.884Z,17.48
2019-02-23T07:56:16.823Z,17.46
2019-02-23T07:57:26.518Z,17.46
2019-02-23T07:58:36.199Z,17.48
2019-02-23T07:59:45.958Z,17.44
2019-02-23T08:00:55.645Z,17.43
2019-02-23T08:02:05.598Z,17.4
2019-02-23T08:03:15.289Z,17.4
2019-02-23T08:04:24.725Z,17.34
2019-02-23T08:05:34.658Z,17.37
2019-02-23T08:06:44.111Z,17.34
2019-02-23T08:07:53.792Z,17.36
2019-02-23T08:09:03.482Z,17.31
2019-02-23T08:10:12.676Z,17.31
2019-02-23T08:11:22.152Z,17.36
2019-02-23T08:12:32.079Z,17.36
2019-02-23T08:13:43.223Z,17.37
2019-02-23T08:14:53.156Z,17.38
2019-02-23T08:16:03.084Z,17.34
2019-02-23T08:17:12.779Z,17.37
2019-02-23T08:18:22.719Z,17.38
2019-02-23T08:19:31.927Z,17.34
2019-02-23T08:20:41.361Z,17.4
2019-02-23T08:21:51.053Z,17.41
2019-02-23T08:23:00.236Z,17.41
2019-02-23T08:24:10.187Z,17.41
2019-02-23T08:25:19.626Z,17.34
2019-02-23T08:26:29.066Z,17.36
2019-02-23T08:27:39.013Z,17.46
2019-02-23T08:28:48.707Z,17.36
2019-02-23T08:29:58.214Z,17.37
2019-02-23T08:31:07.652Z,17.4
2019-02-23T08:32:18.492Z,17.37
2019-02-23T08:33:28.191Z,17.41
2019-02-23T08:34:38.125Z,17.41
2019-02-23T08:35:47.564Z,17.46
2019-02-23T08:36:57.257Z,17.41
2019-02-23T08:38:06.945Z,17.46
2019-02-23T08:39:16.646Z,17.38
2019-02-23T08:40:26.576Z,17.43
2019-02-23T08:41:35.763Z,17.38
2019-02-23T08:42:44.956Z,17.38
2019-02-23T08:43:54.890Z,17.31
2019-02-23T08:45:04.337Z,17.41
2019-02-23T08:46:14.028Z,17.36
2019-02-23T08:47:23.468Z,17.44
2019-02-23T08:48:35.888Z,17.37
2019-02-23T08:49:45.333Z,17.41
2019-02-23T08:50:55.019Z,17.48
2019-02-23T08:52:04.955Z,17.41
2019-02-23T08:53:14.654Z,17.37
2019-02-23T08:54:24.587Z,17.48
2019-02-23T08:55:34.083Z,17.41
2019-02-23T08:56:43.287Z,17.41
2019-02-23T08:57:53.235Z,17.44
2019-02-23T08:59:02.976Z,14.61
2019-02-23T09:00:12.427Z,11.72
2019-02-23T09:01:22.114Z,9.71
2019-02-23T09:02:31.591Z,8.99
2019-02-23T09:03:41.272Z,8.43
2019-02-23T09:04:51.279Z,8.59
2019-02-23T09:06:00.963Z,8.28
2019-02-23T09:07:10.403Z,7.98
2019-02-23T09:08:20.090Z,7.67
2019-02-23T09:09:29.519Z,7.57
2019-02-23T09:10:38.946Z,7.71
2019-02-23T09:11:48.884Z,7.83
2019-02-23T09:12:58.570Z,7.5
2019-02-23T09:14:08.279Z,7.55
2019-02-23T09:15:17.986Z,7.93
2019-02-23T09:16:29.726Z,8.28
2019-02-23T09:17:39.739Z,9.39
2019-02-23T09:18:49.180Z,10.42
2019-02-23T09:19:58.696Z,11.35
2019-02-23T09:21:08.133Z,12.21
2019-02-23T09:22:17.569Z,13.03
2019-02-23T09:23:27.257Z,13.49
2019-02-23T09:24:37.184Z,13.96
2019-02-23T09:25:46.378Z,14.45
2019-02-23T09:26:56.069Z,14.72
2019-02-23T09:28:05.772Z,15.01
2019-02-23T09:29:15.478Z,15.2
2019-02-23T09:30:25.405Z,15.47
2019-02-23T09:31:35.113Z,15.57
2019-02-23T09:32:44.312Z,15.68
2019-02-23T09:33:54.011Z,15.87
2019-02-23T09:35:03.956Z,15.93
2019-02-23T09:36:12.893Z,15.97
2019-02-23T09:37:22.832Z,16.14
2019-02-23T09:38:32.539Z,16.24
2019-02-23T09:39:41.991Z,16.27
2019-02-23T09:40:51.215Z,16.34
2019-02-23T09:42:11.714Z,16.42
2019-02-23T09:43:22.474Z,16.45
2019-02-23T09:44:31.918Z,16.49
2019-02-23T09:45:41.849Z,16.5
2019-02-23T09:46:51.815Z,16.58
2019-02-23T09:48:01.251Z,16.61
2019-02-23T09:49:10.705Z,16.63
2019-02-23T09:50:20.400Z,16.68
2019-02-23T09:51:30.082Z,16.71
2019-02-23T09:52:39.539Z,16.73
2019-02-23T09:53:49.478Z,16.76
2019-02-23T09:54:58.926Z,16.81
2019-02-23T09:56:08.378Z,16.88
2019-02-23T09:57:17.816Z,16.93
2019-02-23T09:58:27.270Z,16.97
2019-02-23T09:59:40.123Z,16.93
2019-02-23T10:00:49.997Z,16.97
2019-02-23T10:01:59.690Z,17.04
2019-02-23T10:03:09.391Z,17
2019-02-23T10:04:19.080Z,17.06
2019-02-23T10:05:28.519Z,17.18
2019-02-23T10:06:38.289Z,17.31
2019-02-23T10:07:48.219Z,17.26
2019-02-23T10:08:58.158Z,17.3
2019-02-23T10:10:07.855Z,17.37
2019-02-23T10:11:17.046Z,17.41
2019-02-23T10:12:26.980Z,17.49
2019-02-23T10:13:36.678Z,17.58
2019-02-23T10:14:46.389Z,17.54
2019-02-23T10:15:55.846Z,17.56
2019-02-23T10:17:05.544Z,17.62
2019-02-23T10:18:16.926Z,17.66
2019-02-23T10:19:26.631Z,17.75
2019-02-23T10:20:35.812Z,17.78
2019-02-23T10:21:45.250Z,17.77
2019-02-23T10:22:54.695Z,17.87
2019-02-23T10:24:04.142Z,17.86
2019-02-23T10:25:13.790Z,17.89
2019-02-23T10:26:23.487Z,17.84
2019-02-23T10:27:33.420Z,17.87
2019-02-23T10:28:43.355Z,17.89
2019-02-23T10:29:52.291Z,17.89
2019-02-23T10:31:01.731Z,17.92
2019-02-23T10:32:11.429Z,17.96
2019-02-23T10:33:21.387Z,17.96
2019-02-23T10:34:30.833Z,17.89
2019-02-23T10:35:40.527Z,17.96
2019-02-23T10:36:49.969Z,17.97
2019-02-23T10:37:59.422Z,17.97
2019-02-23T10:39:08.615Z,17.96
2019-02-23T10:40:18.315Z,18.02
2019-02-23T10:41:28.025Z,18.03
2019-02-23T10:42:37.222Z,18.05
2019-02-23T10:43:46.913Z,18.05
2019-02-23T10:44:56.621Z,18.12
2019-02-23T10:46:06.361Z,18.08
2019-02-23T10:47:17.482Z,18.1
2019-02-23T10:48:27.183Z,18.15
2019-02-23T10:49:37.141Z,18.17
2019-02-23T10:50:46.841Z,18.15
2019-02-23T10:51:56.533Z,18.08
2019-02-23T10:53:06.253Z,18.18
2019-02-23T10:54:15.439Z,18.23
2019-02-23T10:55:25.133Z,18.23
2019-02-23T10:56:34.826Z,18.12
2019-02-23T10:57:44.517Z,18.21
2019-02-23T10:58:54.205Z,18.33
2019-02-23T11:00:04.139Z,18.2
2019-02-23T11:01:13.826Z,18.14
2019-02-23T11:02:23.269Z,18.23
2019-02-23T11:03:33.269Z,18.33
2019-02-23T11:04:42.766Z,18.27
2019-02-23T11:05:52.717Z,18.27
2019-02-23T11:07:02.406Z,18.29
2019-02-23T11:08:12.342Z,18.33
2019-02-23T11:09:22.028Z,18.47
2019-02-23T11:10:31.961Z,18.52
2019-02-23T11:11:41.418Z,18.5
2019-02-23T11:12:53.440Z,18.55
2019-02-23T11:14:02.628Z,18.54
2019-02-23T11:15:12.322Z,18.57
2019-02-23T11:16:21.766Z,18.57
2019-02-23T11:17:31.451Z,18.62
2019-02-23T11:18:41.133Z,18.57
2019-02-23T11:19:50.580Z,18.63
2019-02-23T11:21:00.515Z,18.62
2019-02-23T11:22:10.459Z,18.69
2019-02-23T11:23:20.159Z,18.62
2019-02-23T11:24:29.603Z,18.73
2019-02-23T11:25:39.060Z,18.66
2019-02-23T11:26:48.552Z,18.72
2019-02-23T11:27:58.486Z,18.7
2019-02-23T11:29:07.972Z,18.8
2019-02-23T11:30:17.655Z,18.76
2019-02-23T11:31:27.355Z,18.81
2019-02-23T11:32:37.284Z,18.87
2019-02-23T11:33:46.981Z,18.85
2019-02-23T11:34:56.997Z,18.84
2019-02-23T11:36:06.938Z,18.85
2019-02-23T11:37:16.641Z,18.85
2019-02-23T11:38:26.344Z,18.82
2019-02-23T11:39:36.026Z,18.87
2019-02-23T11:40:45.711Z,18.92
2019-02-23T11:41:55.164Z,18.95
2019-02-23T11:43:04.599Z,19.08
2019-02-23T11:44:14.042Z,19.1
2019-02-23T11:45:23.987Z,19.11
2019-02-23T11:46:35.787Z,19.19
2019-02-23T11:48:04.415Z,19.29
2019-02-23T11:49:13.863Z,19.21
2019-02-23T11:50:23.563Z,19.29
2019-02-23T11:51:33.249Z,19.31
2019-02-23T11:52:44.298Z,19.4
2019-02-23T11:53:59.480Z,19.39
2019-02-23T11:55:09.188Z,19.39
2019-02-23T11:56:18.894Z,19.36
2019-02-23T11:57:28.832Z,19.44
2019-02-23T11:58:38.605Z,19.47
2019-02-23T11:59:48.051Z,19.41
2019-02-23T12:00:57.728Z,19.51
2019-02-23T12:02:07.424Z,19.46
2019-02-23T12:03:17.384Z,19.48
2019-02-23T12:04:26.874Z,19.5
2019-02-23T12:05:36.829Z,19.48
2019-02-23T12:06:46.513Z,19.48
2019-02-23T12:07:56.206Z,19.55
2019-02-23T12:09:06.163Z,19.59
2019-02-23T12:10:16.110Z,19.61
2019-02-23T12:11:26.060Z,19.61
2019-02-23T12:12:35.757Z,19.58
2019-02-23T12:13:45.699Z,19.62
2019-02-23T12:14:55.656Z,19.58
2019-02-23T12:16:05.208Z,19.59
2019-02-23T12:17:15.153Z,19.58
2019-02-23T12:18:25.142Z,19.62
2019-02-23T12:19:34.842Z,19.62
2019-02-23T12:20:44.533Z,19.56
2019-02-23T12:21:54.221Z,19.68
2019-02-23T12:23:03.660Z,19.59
2019-02-23T12:24:12.905Z,19.68
2019-02-23T12:25:22.617Z,19.71
2019-02-23T12:26:32.297Z,19.77
2019-02-23T12:27:41.737Z,19.77
2019-02-23T12:28:51.431Z,19.76
2019-02-23T12:30:00.372Z,19.73
2019-02-23T12:31:10.053Z,19.68
2019-02-23T12:32:19.487Z,19.68
2019-02-23T12:33:29.429Z,19.73
2019-02-23T12:34:39.118Z,19.68
2019-02-23T12:35:48.806Z,19.68
2019-02-23T12:37:00.069Z,19.62
2019-02-23T12:38:09.813Z,19.73
2019-02-23T12:39:19.760Z,19.65
2019-02-23T12:40:29.443Z,19.68
2019-02-23T12:41:38.630Z,19.65
2019-02-23T12:42:48.080Z,19.71
2019-02-23T12:43:57.772Z,19.65
2019-02-23T12:45:07.467Z,19.66
2019-02-23T12:46:17.167Z,19.71
2019-02-23T12:47:26.110Z,19.66
2019-02-23T12:48:35.808Z,19.71
2019-02-23T12:49:45.046Z,19.65
2019-02-23T12:50:54.248Z,19.66
2019-02-23T12:52:03.692Z,19.65
2019-02-23T12:53:13.398Z,19.61
2019-02-23T12:54:23.108Z,19.65
2019-02-23T12:55:33.060Z,19.73
2019-02-23T12:56:42.795Z,19.69
2019-02-23T12:57:52.492Z,19.69
2019-02-23T12:59:02.197Z,19.63
2019-02-23T13:00:12.139Z,19.63
2019-02-23T13:01:22.149Z,19.66
2019-02-23T13:02:31.598Z,19.68
2019-02-23T13:03:41.274Z,19.69
2019-02-23T13:04:51.214Z,19.59
2019-02-23T13:06:00.406Z,19.62
2019-02-23T13:07:10.350Z,19.56
2019-02-23T13:08:20.287Z,19.62
2019-02-23T13:09:29.718Z,19.62
2019-02-23T13:10:39.160Z,19.55
2019-02-23T13:11:48.843Z,19.59
2019-02-23T13:12:58.365Z,19.61
2019-02-23T13:14:07.814Z,19.56
2019-02-23T13:15:17.518Z,19.63
2019-02-23T13:16:27.207Z,19.54
2019-02-23T13:17:36.901Z,19.61
2019-02-23T13:18:46.336Z,19.58
2019-02-23T13:19:56.272Z,19.62
2019-02-23T13:21:06.243Z,19.61
2019-02-23T13:22:15.940Z,19.54
2019-02-23T13:23:25.628Z,19.56
2019-02-23T13:24:34.828Z,19.65
2019-02-23T13:25:44.798Z,19.62
2019-02-23T13:26:54.485Z,19.59
2019-02-23T13:28:04.181Z,19.58
2019-02-23T13:29:13.613Z,19.54
2019-02-23T13:30:23.580Z,19.58
2019-02-23T13:31:33.013Z,19.62
2019-02-23T13:32:42.954Z,19.76
2019-02-23T13:33:52.406Z,19.68
2019-02-23T13:35:02.097Z,19.68
2019-02-23T13:36:11.549Z,19.69
2019-02-23T13:37:21.062Z,19.76
2019-02-23T13:38:31.046Z,19.76
2019-02-23T13:39:40.727Z,19.84
2019-02-23T13:40:50.442Z,19.84
2019-02-23T13:42:00.399Z,19.83
2019-02-23T13:43:11.023Z,19.86
2019-02-23T13:44:21.903Z,19.95
2019-02-23T13:45:31.592Z,19.92
2019-02-23T13:46:41.284Z,19.96
2019-02-23T13:47:51.223Z,19.96
2019-02-23T13:49:01.164Z,20.01
2019-02-23T13:50:10.880Z,19.98
2019-02-23T13:51:20.321Z,19.92
2019-02-23T13:52:30.007Z,20.01
2019-02-23T13:53:39.454Z,20.14
2019-02-23T13:54:48.900Z,20.03
2019-02-23T13:55:58.849Z,20.02
2019-02-23T13:57:08.792Z,20.1
2019-02-23T13:58:18.921Z,19.99
2019-02-23T13:59:28.935Z,19.98
2019-02-23T14:00:38.638Z,19.94
2019-02-23T14:01:48.329Z,19.99
2019-02-23T14:02:58.027Z,19.98
2019-02-23T14:04:07.471Z,19.98
2019-02-23T14:05:17.188Z,20.01
2019-02-23T14:06:26.873Z,20.01
2019-02-23T14:07:36.825Z,19.99
2019-02-23T14:08:46.511Z,20.03
2019-02-23T14:09:56.454Z,20.05
2019-02-23T14:11:06.156Z,19.91
2019-02-23T14:12:15.593Z,19.94
2019-02-23T14:13:25.295Z,19.95
2019-02-23T14:14:35.239Z,19.87
2019-02-23T14:15:45.172Z,19.92
2019-02-23T14:16:57.304Z,20.02
2019-02-23T14:18:07.979Z,20.08
2019-02-23T14:19:17.738Z,19.99
2019-02-23T14:20:27.426Z,20.11
2019-02-23T14:21:37.373Z,20.14
2019-02-23T14:22:47.063Z,20.21
2019-02-23T14:23:56.758Z,20.17
2019-02-23T14:25:06.448Z,20.18
2019-02-23T14:26:16.154Z,20.17
2019-02-23T14:27:25.347Z,20.18
2019-02-23T14:28:35.284Z,20.2
2019-02-23T14:29:45.229Z,20.23
2019-02-23T14:30:54.424Z,20.21
2019-02-23T14:32:04.121Z,20.24
2019-02-23T14:33:13.560Z,20.24
2019-02-23T14:34:23.336Z,20.2
2019-02-23T14:35:33.084Z,20.16
2019-02-23T14:36:42.285Z,20.29
2019-02-23T14:37:51.980Z,20.23
2019-02-23T14:39:02.729Z,20.21
2019-02-23T14:40:12.848Z,20.29
2019-02-23T14:41:22.962Z,20.29
2019-02-23T14:42:32.959Z,20.28
2019-02-23T14:43:42.944Z,20.31
2019-02-23T14:44:52.698Z,20.28
2019-02-23T14:46:02.706Z,20.31
2019-02-23T14:47:12.257Z,20.33
2019-02-23T14:48:22.053Z,20.35
2019-02-23T14:49:32.090Z,20.33
2019-02-23T14:50:41.284Z,20.32
2019-02-23T14:51:51.073Z,20.33
2019-02-23T14:53:00.928Z,20.29
2019-02-23T14:54:10.710Z,20.39
2019-02-23T14:55:20.707Z,20.29
2019-02-23T14:56:30.444Z,20.32
2019-02-23T14:57:39.732Z,20.29
2019-02-23T14:58:49.195Z,20.29
2019-02-23T14:59:59.233Z,20.41
2019-02-23T15:01:08.172Z,20.26
2019-02-23T15:02:17.863Z,20.33
2019-02-23T15:03:27.568Z,20.38
2019-02-23T15:04:36.999Z,20.33
2019-02-23T15:05:46.695Z,20.41